createdAt,value
2023-04-28T00:02:10.154Z,4.6
2023-04-28T00:08:14.508Z,4.4
2023-04-28T00:14:05.820Z,4.6
2023-04-28T00:20:34.276Z,4.7
2023-04-28T00:26:55.132Z,4.8
2023-04-28T00:32:46.795Z,4.5
2023-04-28T00:38:39.707Z,5.2
2023-04-28T00:44:32.677Z,5.2
2023-04-28T00:50:24.526Z,5.1
2023-04-28T00:56:15.367Z,5.8
2023-04-28T01:02:07.226Z,5.4
2023-04-28T01:07:59.067Z,5.9
2023-04-28T01:13:50.660Z,5.7
2023-04-28T01:19:44.056Z,5.9
2023-04-28T01:25:37.152Z,5.9
2023-04-28T01:31:29.445Z,5.2
2023-04-28T01:37:20.514Z,5.2
2023-04-28T01:43:12.339Z,5.3
2023-04-28T01:49:05.026Z,5.7
2023-04-28T01:54:55.882Z,6.2
2023-04-28T02:00:46.624Z,6.2
2023-04-28T02:06:37.554Z,6.5
2023-04-28T02:12:28.258Z,6.5
2023-04-28T02:18:19.214Z,6.6
2023-04-28T02:24:10.880Z,7.1
2023-04-28T02:29:59.876Z,7.3
2023-04-28T02:35:50.064Z,6.6
2023-04-28T02:41:41.939Z,7
2023-04-28T02:47:34.076Z,6.6
2023-04-28T02:54:34.642Z,7
2023-04-28T03:00:26.499Z,6.7
2023-04-28T03:06:18.930Z,6.8
2023-04-28T03:12:10.673Z,7.2
2023-04-28T03:18:03.798Z,7.2
2023-04-28T03:23:56.907Z,7.8
2023-04-28T03:29:48.305Z,7
2023-04-28T03:35:41.102Z,7
2023-04-28T03:41:33.538Z,6.9
2023-04-28T03:47:25.088Z,8.1
2023-04-28T03:53:17.248Z,8
2023-04-28T03:59:09.816Z,7.9
2023-04-28T04:05:01.543Z,7.7
2023-04-28T04:10:52.469Z,7.9
2023-04-28T04:16:44.610Z,7.7
2023-04-28T04:22:37.136Z,7.5
2023-04-28T04:28:28.603Z,7.5
2023-04-28T04:34:19.507Z,7.7
2023-04-28T04:40:11.676Z,7.9
2023-04-28T04:46:03.482Z,7.2
2023-04-28T04:51:55.476Z,7.4
2023-04-28T04:57:47.654Z,7.3
2023-04-28T05:03:39.829Z,6.9
2023-04-28T05:09:31.251Z,7.2
2023-04-28T05:15:23.039Z,7.2
2023-04-28T05:21:15.984Z,7.1
2023-04-28T05:27:06.991Z,7.5
2023-04-28T05:32:57.276Z,7.6
2023-04-28T05:38:48.931Z,7.8
2023-04-28T05:44:40.629Z,8.2
2023-04-28T05:50:32.424Z,8.8
2023-04-28T05:56:24.842Z,8.3
2023-04-28T06:02:15.042Z,8.7
2023-04-28T06:08:05.851Z,9.2
2023-04-28T06:13:56.975Z,8.8
2023-04-28T06:19:48.898Z,8.4
2023-04-28T06:25:39.994Z,8.7
2023-04-28T06:31:30.942Z,9.4
2023-04-28T06:37:21.676Z,9.3
2023-04-28T06:43:13.915Z,8.9
2023-04-28T06:49:07.851Z,9.1
2023-04-28T06:55:01.112Z,9
2023-04-28T07:00:52.659Z,8.4
2023-04-28T07:06:50.891Z,8.6
2023-04-28T07:12:45.626Z,8.7
2023-04-28T07:18:40.168Z,8.7
2023-04-28T07:24:32.842Z,8.5
2023-04-28T07:30:36.528Z,8.8
2023-04-28T07:36:29.766Z,8
2023-04-28T07:42:23.385Z,8.5
2023-04-28T07:48:17.465Z,7.8
2023-04-28T07:54:11.422Z,8.3
2023-04-28T08:00:03.052Z,8.7
2023-04-28T08:05:55.998Z,9.2
2023-04-28T08:11:48.881Z,9.1
2023-04-28T08:17:40.922Z,9.1
2023-04-28T08:23:33.827Z,8.9
2023-04-28T08:29:25.906Z,8.4
2023-04-28T08:35:18.408Z,8.4
2023-04-28T08:41:10.777Z,8.9
2023-04-28T08:47:03.293Z,8.7
2023-04-28T08:52:54.927Z,9.5
2023-04-28T08:58:46.370Z,8.7
2023-04-28T09:04:38.477Z,9.1
2023-04-28T09:10:31.859Z,8.8
2023-04-28T09:16:24.992Z,8.8
2023-04-28T09:28:40.320Z,9.4
2023-04-28T09:34:32.422Z,8.6
2023-04-28T09:40:23.791Z,7.9
2023-04-28T09:46:15.498Z,8
2023-04-28T09:52:07.976Z,8.4
2023-04-28T09:58:01.771Z,8.2
2023-04-28T10:03:55.077Z,9.2
2023-04-28T10:09:49.680Z,10.5
2023-04-28T10:15:40.533Z,9.6
2023-04-28T10:21:32.682Z,9.1
2023-04-28T10:27:24.692Z,8.5
2023-04-28T10:33:17.508Z,7.8
2023-04-28T10:39:11.564Z,7
2023-04-28T10:45:05.352Z,6.1
2023-04-28T10:50:59.083Z,6.1
2023-04-28T10:56:51.663Z,5.7
2023-04-28T11:02:48.065Z,5.3
2023-04-28T11:08:41.358Z,5.1
2023-04-28T11:14:32.505Z,5.6
2023-04-28T11:20:25.125Z,5.9
2023-04-28T11:26:17.700Z,6.5
2023-04-28T11:32:11.242Z,6.9
2023-04-28T11:38:02.416Z,6.3
2023-04-28T11:43:55.511Z,6.1
2023-04-28T11:49:47.092Z,5.7
2023-04-28T11:55:40.573Z,6
2023-04-28T12:01:32.558Z,5.4
2023-04-28T12:07:25.650Z,5.7
2023-04-28T12:13:17.370Z,4.6
2023-04-28T12:19:10.192Z,4.1
2023-04-28T12:25:02.762Z,3.9
2023-04-28T12:30:54.749Z,4.3
2023-04-28T12:36:50.900Z,3.8
2023-04-28T12:42:41.973Z,3.7
2023-04-28T12:48:33.699Z,4.1
2023-04-28T12:54:24.343Z,3.1
2023-04-28T13:00:17.124Z,2.6
2023-04-28T13:06:07.757Z,3.1
2023-04-28T13:12:00.581Z,3.5
2023-04-28T13:17:52.286Z,3.3
2023-04-28T13:23:45.494Z,3.1
2023-04-28T13:29:38.450Z,2.6
2023-04-28T13:35:33.135Z,2.4
2023-04-28T13:41:26.264Z,2.7
2023-04-28T13:47:19.299Z,2.3
2023-04-28T13:53:11.300Z,2.1
2023-04-28T13:59:04.113Z,2.6
2023-04-28T14:04:58.484Z,2.7
2023-04-28T14:10:51.025Z,2.3
2023-04-28T14:16:42.961Z,2.5
2023-04-28T14:22:34.935Z,2.6
2023-04-28T14:28:27.022Z,2.2
2023-04-28T14:34:19.560Z,2
2023-04-28T14:40:11.866Z,2
2023-04-28T14:46:04.888Z,2.3
2023-04-28T14:51:57.040Z,2.4
2023-04-28T14:57:49.247Z,2.1
2023-04-28T15:03:42.874Z,2.7
2023-04-28T15:09:34.899Z,3.5
2023-04-28T15:15:27.075Z,3.1
2023-04-28T15:21:19.355Z,2.8
2023-04-28T15:27:11.262Z,3.5
2023-04-28T15:33:04.173Z,2.4
2023-04-28T15:38:55.847Z,1.7
2023-04-28T15:44:48.547Z,1.4
2023-04-28T15:50:40.624Z,1.3
2023-04-28T15:56:32.944Z,1.5
2023-04-28T16:02:26.269Z,0.9
2023-04-28T16:08:18.072Z,0.8
2023-04-28T16:14:11.053Z,0.6
2023-04-28T16:20:03.263Z,0.7
2023-04-28T16:25:56.107Z,0.9
2023-04-28T16:31:48.697Z,0.8
2023-04-28T16:37:40.075Z,0.9
2023-04-28T16:43:38.734Z,0.8
2023-04-28T16:49:29.617Z,1.3
2023-04-28T16:55:22.270Z,2
2023-04-28T17:07:37.471Z,2.3
2023-04-28T17:13:37.240Z,3.2
2023-04-28T17:19:56.542Z,3.1
2023-04-28T17:25:58.816Z,2.6
2023-04-28T17:32:12.361Z,2.6
2023-04-28T17:38:06.087Z,2.5
2023-04-28T17:44:21.458Z,2.2
2023-04-28T17:50:15.807Z,2.1
2023-04-28T17:56:09.707Z,2.2
2023-04-28T18:02:02.298Z,4.2
2023-04-28T18:07:54.450Z,4.6
2023-04-28T18:13:46.083Z,2
2023-04-28T18:19:41.918Z,1.6
2023-04-28T18:25:49.018Z,1.1
2023-04-28T18:31:50.641Z,1.2
2023-04-28T18:37:55.177Z,1
2023-04-28T18:44:00.199Z,0.9
2023-04-28T18:49:56.203Z,0.9
2023-04-28T18:56:56.940Z,0.8
2023-04-28T19:02:48.306Z,0.7
2023-04-28T19:14:39.655Z,0.9
2023-04-28T19:20:31.060Z,0.9
2023-04-28T19:26:23.436Z,1.7
2023-04-28T19:32:14.977Z,0.8
2023-04-28T19:38:06.684Z,0.7
2023-04-28T19:44:04.497Z,0.9
2023-04-28T19:49:57.238Z,0.8
2023-04-28T19:55:48.900Z,0.9
2023-04-28T20:01:43.073Z,1
2023-04-28T20:07:34.739Z,0.9
2023-04-28T20:13:28.541Z,1.1
2023-04-28T20:19:31.763Z,1.1
2023-04-28T20:25:23.853Z,1.4
2023-04-28T20:31:16.434Z,1.4
2023-04-28T20:37:09.986Z,1.8
2023-04-28T20:43:01.862Z,2.7
2023-04-28T20:48:54.293Z,8.9
2023-04-28T20:54:46.903Z,1.5
2023-04-28T21:00:38.474Z,1.5
2023-04-28T21:06:39.288Z,17.7
2023-04-28T21:20:11.598Z,1.4
2023-04-28T21:26:33.235Z,1.6
2023-04-28T21:32:32.397Z,1.6
2023-04-28T21:39:09.757Z,1.7
2023-04-28T21:45:06.516Z,1.8
2023-04-28T21:50:58.204Z,1.9
2023-04-28T21:56:52.688Z,1.9
2023-04-28T22:02:49.017Z,2.7
2023-04-28T22:08:56.848Z,3.1
2023-04-28T22:14:49.109Z,2.1
2023-04-28T22:20:46.749Z,2
2023-04-28T22:27:03.774Z,2.3
2023-04-28T23:04:02.298Z,3.4
2023-04-28T23:10:00.076Z,4
2023-04-28T23:15:49.640Z,4.1
2023-04-28T23:21:42.386Z,4.3
2023-04-28T23:27:35.102Z,4.1
2023-04-28T23:33:27.279Z,5.5
2023-04-28T23:39:18.817Z,5.8
2023-04-28T23:45:11.062Z,8.9
2023-04-28T23:51:02.658Z,10.2
2023-04-28T23:56:54.705Z,9.9
